createdAt,value
2023-04-10T00:00:31.141Z,973.92
2023-04-10T00:01:01.166Z,973.92
2023-04-10T00:01:32.097Z,973.82
2023-04-10T00:02:02.619Z,973.92
2023-04-10T00:02:34.022Z,973.92
2023-04-10T00:03:04.858Z,974.03
2023-04-10T00:03:36.033Z,974.03
2023-04-10T00:04:06.461Z,973.92
2023-04-10T00:04:38.089Z,973.92
2023-04-10T00:05:08.882Z,973.92
2023-04-10T00:05:39.892Z,973.92
2023-04-10T00:06:11.197Z,974.03
2023-04-10T00:06:41.924Z,974.03
2023-04-10T00:07:12.701Z,974.03
2023-04-10T00:07:43.940Z,974.03
2023-04-10T00:08:14.726Z,973.92
2023-04-10T00:08:45.900Z,973.92
2023-04-10T00:09:16.192Z,973.92
2023-04-10T00:09:48.339Z,973.92
2023-04-10T00:10:18.760Z,973.92
2023-04-10T00:10:50.115Z,973.92
2023-04-10T00:11:21.182Z,973.82
2023-04-10T00:11:51.893Z,973.82
2023-04-10T00:12:22.578Z,973.92
2023-04-10T00:12:53.982Z,973.92
2023-04-10T00:13:24.283Z,974.03
2023-04-10T00:13:55.993Z,974.03
2023-04-10T00:14:26.206Z,973.92
2023-04-10T00:14:57.986Z,973.92
2023-04-10T00:15:29.134Z,974.03
2023-04-10T00:15:59.936Z,974.03
2023-04-10T00:16:31.744Z,974.03
2023-04-10T00:17:02.040Z,974.03
2023-04-10T00:17:32.219Z,973.92
2023-04-10T00:18:04.032Z,973.82
2023-04-10T00:18:34.339Z,973.82
2023-04-10T00:19:06.002Z,973.92
2023-04-10T00:19:36.183Z,973.92
2023-04-10T00:20:08.390Z,973.92
2023-04-10T00:20:39.447Z,973.92
2023-04-10T00:21:09.922Z,973.82
2023-04-10T00:21:41.177Z,973.82
2023-04-10T00:22:11.931Z,973.82
2023-04-10T00:22:42.474Z,973.82
2023-04-10T00:23:13.192Z,973.82
2023-04-10T00:23:45.079Z,973.82
2023-04-10T00:24:15.172Z,973.72
2023-04-10T00:24:46.909Z,973.72
2023-04-10T00:25:17.757Z,973.92
2023-04-10T00:25:49.183Z,973.92
2023-04-10T00:26:19.271Z,973.82
2023-04-10T00:26:51.930Z,973.82
2023-04-10T00:27:21.575Z,973.82
2023-04-10T00:27:52.944Z,973.82
2023-04-10T00:28:23.168Z,973.92
2023-04-10T00:28:54.995Z,973.92
2023-04-10T00:29:25.187Z,973.82
2023-04-10T00:29:57.396Z,973.82
2023-04-10T00:30:28.095Z,973.72
2023-04-10T00:30:58.996Z,973.72
2023-04-10T00:31:29.180Z,973.62
2023-04-10T00:32:01.899Z,973.62
2023-04-10T00:32:31.257Z,973.72
2023-04-10T00:33:03.552Z,973.92
2023-04-10T00:33:33.184Z,973.92
2023-04-10T00:34:05.018Z,973.92
2023-04-10T00:34:35.164Z,973.92
2023-04-10T00:35:07.492Z,973.82
2023-04-10T00:35:37.234Z,973.82
2023-04-10T00:36:09.144Z,973.82
2023-04-10T00:36:39.460Z,973.82
2023-04-10T00:37:11.879Z,973.82
2023-04-10T00:37:41.266Z,973.82
2023-04-10T00:38:12.912Z,973.82
2023-04-10T00:38:43.184Z,973.82
2023-04-10T00:39:14.942Z,973.62
2023-04-10T00:39:45.189Z,973.62
2023-04-10T00:40:17.408Z,973.92
2023-04-10T00:40:47.769Z,973.92
2023-04-10T00:41:18.949Z,973.72
2023-04-10T00:41:49.310Z,973.72
2023-04-10T00:42:21.892Z,973.82
2023-04-10T00:42:51.166Z,973.82
2023-04-10T00:43:24.009Z,973.62
2023-04-10T00:43:53.385Z,973.62
2023-04-10T00:44:24.900Z,973.82
2023-04-10T00:44:55.481Z,973.82
2023-04-10T00:45:27.741Z,973.92
2023-04-10T00:45:57.287Z,973.92
2023-04-10T00:46:28.998Z,973.52
2023-04-10T00:46:59.213Z,973.52
2023-04-10T00:47:31.915Z,973.72
2023-04-10T00:48:01.215Z,973.72
2023-04-10T00:48:32.879Z,973.72
2023-04-10T00:49:03.176Z,973.92
2023-04-10T00:49:35.015Z,973.92
2023-04-10T00:50:06.468Z,973.82
2023-04-10T00:50:36.978Z,973.82
2023-04-10T00:51:07.229Z,973.72
2023-04-10T00:51:38.916Z,973.72
2023-04-10T00:52:09.305Z,973.82
2023-04-10T00:52:42.436Z,973.82
2023-04-10T00:53:11.187Z,973.72
2023-04-10T00:53:43.205Z,973.72
2023-04-10T00:54:13.442Z,973.52
2023-04-10T00:54:44.920Z,973.52
2023-04-10T00:55:15.648Z,973.82
2023-04-10T00:55:47.132Z,973.82
2023-04-10T00:56:17.169Z,973.52
2023-04-10T00:56:49.567Z,973.52
2023-04-10T00:57:19.358Z,973.82
2023-04-10T00:57:51.899Z,973.82
2023-04-10T00:58:21.201Z,973.72
2023-04-10T00:58:53.088Z,973.72
2023-04-10T00:59:23.172Z,973.72
2023-04-10T00:59:55.369Z,973.72
2023-04-10T01:00:26.907Z,973.52
2023-04-10T01:00:57.744Z,973.52
2023-04-10T01:01:27.215Z,973.82
2023-04-10T01:01:59.160Z,973.82
2023-04-10T01:02:29.335Z,973.82
2023-04-10T01:03:02.190Z,973.82
2023-04-10T01:03:31.334Z,973.72
2023-04-10T01:04:03.519Z,973.82
2023-04-10T01:04:33.289Z,973.82
2023-04-10T01:05:05.804Z,973.72
2023-04-10T01:05:35.199Z,973.72
2023-04-10T01:06:06.896Z,973.72
2023-04-10T01:06:37.448Z,973.72
2023-04-10T01:07:08.913Z,973.72
2023-04-10T01:07:39.329Z,973.72
2023-04-10T01:08:11.936Z,973.62
2023-04-10T01:08:41.202Z,973.62
2023-04-10T01:09:12.889Z,973.72
2023-04-10T01:09:43.331Z,973.72
2023-04-10T01:10:16.137Z,973.92
2023-04-10T01:10:45.193Z,973.92
2023-04-10T01:11:16.943Z,973.92
2023-04-10T01:11:47.185Z,973.92
2023-04-10T01:12:19.063Z,973.72
2023-04-10T01:12:49.232Z,973.72
2023-04-10T01:13:22.118Z,973.62
2023-04-10T01:13:51.253Z,973.62
2023-04-10T01:14:23.355Z,973.62
2023-04-10T01:14:53.179Z,973.62
2023-04-10T01:15:25.804Z,973.82
2023-04-10T01:15:55.290Z,973.82
2023-04-10T01:16:26.933Z,973.62
2023-04-10T01:16:57.269Z,973.62
2023-04-10T01:17:29.077Z,973.52
2023-04-10T01:17:59.237Z,973.52
2023-04-10T01:18:31.933Z,973.72
2023-04-10T01:19:01.195Z,973.72
2023-04-10T01:19:32.874Z,973.42
2023-04-10T01:20:03.924Z,973.82
2023-04-10T01:20:38.641Z,973.82
2023-04-10T01:21:05.538Z,973.62
2023-04-10T01:21:36.844Z,973.62
2023-04-10T01:22:07.461Z,973.72
2023-04-10T01:22:38.247Z,973.72
2023-04-10T01:23:09.382Z,973.52
2023-04-10T01:23:42.057Z,973.52
2023-04-10T01:24:11.247Z,973.62
2023-04-10T01:24:43.188Z,973.62
2023-04-10T01:25:13.810Z,973.72
2023-04-10T01:25:44.893Z,973.72
2023-04-10T01:26:15.182Z,973.62
2023-04-10T01:26:46.975Z,973.62
2023-04-10T01:27:17.267Z,973.72
2023-04-10T01:27:49.109Z,973.72
2023-04-10T01:28:19.499Z,973.52
2023-04-10T01:28:51.910Z,973.52
2023-04-10T01:29:21.204Z,973.42
2023-04-10T01:29:52.908Z,973.42
2023-04-10T01:30:24.605Z,973.52
2023-04-10T01:30:55.015Z,973.52
2023-04-10T01:31:25.283Z,973.82
2023-04-10T01:31:56.864Z,973.82
2023-04-10T01:32:27.178Z,973.52
2023-04-10T01:32:58.905Z,973.52
2023-04-10T01:33:29.194Z,973.72
2023-04-10T01:34:01.919Z,973.72
2023-04-10T01:34:31.547Z,973.31
2023-04-10T01:35:03.748Z,973.31
2023-04-10T01:35:33.190Z,973.31
2023-04-10T01:36:05.165Z,973.52
2023-04-10T01:36:35.203Z,973.52
2023-04-10T01:37:07.416Z,973.62
2023-04-10T01:37:37.227Z,973.62
2023-04-10T01:38:08.917Z,973.31
2023-04-10T01:38:39.155Z,973.31
2023-04-10T01:39:11.879Z,973.62
2023-04-10T01:39:41.218Z,973.62
2023-04-10T01:40:13.389Z,973.52
2023-04-10T01:40:45.346Z,973.52
2023-04-10T01:41:15.035Z,973.42
2023-04-10T01:41:45.182Z,973.42
2023-04-10T01:42:16.894Z,973.62
2023-04-10T01:42:47.177Z,973.62
2023-04-10T01:43:18.964Z,973.31
2023-04-10T01:43:49.224Z,973.31
2023-04-10T01:44:21.961Z,973.31
2023-04-10T01:44:51.226Z,973.31
2023-04-10T01:45:24.083Z,973.42
2023-04-10T01:45:53.381Z,973.42
2023-04-10T01:46:25.004Z,973.42
2023-04-10T01:46:55.173Z,973.42
2023-04-10T01:47:26.898Z,973.62
2023-04-10T01:47:57.700Z,973.62
2023-04-10T01:48:28.963Z,973.52
2023-04-10T01:48:59.336Z,973.52
2023-04-10T01:49:32.168Z,973.52
2023-04-10T01:50:02.060Z,973.52
2023-04-10T01:50:32.913Z,973.42
2023-04-10T01:51:03.167Z,973.31
2023-04-10T01:51:35.086Z,973.31
2023-04-10T01:52:05.285Z,973.42
2023-04-10T01:52:36.956Z,973.42
2023-04-10T01:53:07.187Z,973.42
2023-04-10T01:53:38.941Z,973.42
2023-04-10T01:54:09.232Z,973.52
2023-04-10T01:54:41.968Z,973.52
2023-04-10T01:55:11.664Z,973.42
2023-04-10T01:55:43.160Z,973.42
2023-04-10T01:56:13.277Z,973.42
2023-04-10T01:56:44.936Z,973.42
2023-04-10T01:57:15.212Z,973.42
2023-04-10T01:57:46.912Z,973.42
2023-04-10T01:58:17.177Z,973.52
2023-04-10T01:58:49.085Z,973.52
2023-04-10T01:59:19.294Z,973.21
2023-04-10T01:59:51.859Z,973.21
2023-04-10T02:00:23.613Z,973.52
2023-04-10T02:00:54.857Z,973.52
2023-04-10T02:01:29.552Z,973.31
2023-04-10T02:01:54.946Z,973.31
2023-04-10T02:02:25.509Z,973.21
2023-04-10T02:02:57.180Z,973.21
2023-04-10T02:03:27.707Z,973.31
2023-04-10T02:03:59.189Z,973.31
2023-04-10T02:04:29.281Z,973.11
2023-04-10T02:05:03.348Z,973.11
2023-04-10T02:05:31.222Z,973.52
2023-04-10T02:06:03.488Z,973.42
2023-04-10T02:06:34.126Z,973.42
2023-04-10T02:07:05.120Z,973.31
2023-04-10T02:07:35.257Z,973.31
2023-04-10T02:08:07.116Z,973.42
2023-04-10T02:08:37.142Z,973.42
2023-04-10T02:09:09.002Z,973.31
2023-04-10T02:09:39.170Z,973.31
2023-04-10T02:10:12.364Z,973.31
2023-04-10T02:10:41.178Z,973.31
2023-04-10T02:11:13.095Z,973.31
2023-04-10T02:11:43.201Z,973.31
2023-04-10T02:12:14.886Z,973.31
2023-04-10T02:12:45.123Z,973.31
2023-04-10T02:13:16.834Z,973.42
2023-04-10T02:13:47.163Z,973.42
2023-04-10T02:14:18.905Z,973.52
2023-04-10T02:14:49.768Z,973.52
2023-04-10T02:15:22.920Z,973.42
2023-04-10T02:15:51.267Z,973.42
2023-04-10T02:16:23.440Z,973.62
2023-04-10T02:16:53.166Z,973.62
2023-04-10T02:17:24.914Z,973.52
2023-04-10T02:17:55.181Z,973.52
2023-04-10T02:18:26.947Z,973.42
2023-04-10T02:18:57.194Z,973.42
2023-04-10T02:19:28.958Z,973.31
2023-04-10T02:19:59.196Z,973.31
2023-04-10T02:20:38.150Z,973.42
2023-04-10T02:21:01.174Z,973.42
2023-04-10T02:21:33.123Z,973.42
2023-04-10T02:22:03.410Z,973.42
2023-04-10T02:22:34.186Z,973.42
2023-04-10T02:23:05.198Z,973.42
2023-04-10T02:23:36.875Z,973.42
2023-04-10T02:24:07.146Z,973.42
2023-04-10T02:24:38.897Z,973.42
2023-04-10T02:25:09.645Z,973.42
2023-04-10T02:25:42.117Z,973.42
2023-04-10T02:26:11.147Z,973.42
2023-04-10T02:26:43.189Z,973.42
2023-04-10T02:27:13.200Z,973.31
2023-04-10T02:27:44.889Z,973.31
2023-04-10T02:28:15.654Z,973.42
2023-04-10T02:28:46.850Z,973.42
2023-04-10T02:29:17.149Z,973.42
2023-04-10T02:29:48.850Z,973.42
2023-04-10T02:30:20.236Z,973.21
2023-04-10T02:30:52.243Z,973.21
2023-04-10T02:31:21.153Z,973.42
2023-04-10T02:31:52.857Z,973.42
2023-04-10T02:32:23.342Z,973.42
2023-04-10T02:32:54.841Z,973.42
2023-04-10T02:33:25.179Z,973.31
2023-04-10T02:33:56.918Z,973.31
2023-04-10T02:34:27.176Z,973.31
2023-04-10T02:34:59.163Z,973.31
2023-04-10T02:35:29.634Z,973.42
2023-04-10T02:36:01.872Z,973.42
2023-04-10T02:36:31.148Z,973.42
2023-04-10T02:37:03.225Z,973.31
2023-04-10T02:37:33.215Z,973.31
2023-04-10T02:38:05.181Z,973.31
2023-04-10T02:38:35.277Z,973.31
2023-04-10T02:39:06.913Z,973.11
2023-04-10T02:39:37.218Z,973.11
2023-04-10T02:40:09.354Z,973.31
2023-04-10T02:40:39.263Z,973.31
2023-04-10T02:41:11.850Z,973.31
2023-04-10T02:41:41.741Z,973.31
2023-04-10T02:42:12.872Z,973.42
2023-04-10T02:42:43.470Z,973.42
2023-04-10T02:43:14.861Z,973.52
2023-04-10T02:43:45.153Z,973.52
2023-04-10T02:44:16.959Z,973.42
2023-04-10T02:44:47.200Z,973.42
2023-04-10T02:45:19.782Z,973.31
2023-04-10T02:45:49.274Z,973.31
2023-04-10T02:46:21.880Z,973.62
2023-04-10T02:46:51.215Z,973.62
2023-04-10T02:47:23.240Z,973.21
2023-04-10T02:47:53.228Z,973.21
2023-04-10T02:48:25.200Z,973.42
2023-04-10T02:48:55.373Z,973.42
2023-04-10T02:49:26.894Z,973.31
2023-04-10T02:49:57.562Z,973.31
2023-04-10T02:50:29.404Z,973.42
2023-04-10T02:50:59.184Z,973.42
2023-04-10T02:51:31.876Z,973.21
2023-04-10T02:52:01.520Z,973.21
2023-04-10T02:52:32.987Z,973.31
2023-04-10T02:53:03.204Z,973.31
2023-04-10T02:53:35.098Z,973.31
2023-04-10T02:54:05.197Z,973.31
2023-04-10T02:54:36.925Z,973.31
2023-04-10T02:55:07.937Z,973.42
2023-04-10T02:55:38.900Z,973.42
2023-04-10T02:56:09.180Z,973.21
2023-04-10T02:56:41.907Z,973.21
2023-04-10T02:57:11.179Z,973.31
2023-04-10T02:57:43.227Z,973.31
2023-04-10T02:58:15.003Z,973.21
2023-04-10T02:58:44.837Z,973.21
2023-04-10T02:59:15.320Z,973.42
2023-04-10T02:59:46.959Z,973.42
2023-04-10T03:00:18.785Z,973.21
2023-04-10T03:00:49.217Z,973.21
2023-04-10T03:01:19.294Z,973.21
2023-04-10T03:01:52.037Z,973.21
2023-04-10T03:02:21.460Z,973.42
2023-04-10T03:02:53.197Z,973.42
2023-04-10T03:03:23.605Z,973.21
2023-04-10T03:03:55.136Z,973.21
2023-04-10T03:04:25.474Z,973.21
2023-04-10T03:04:57.318Z,973.21
2023-04-10T03:05:27.786Z,973.21
2023-04-10T03:05:58.995Z,973.21
2023-04-10T03:06:29.243Z,973.31
2023-04-10T03:07:01.964Z,973.31
2023-04-10T03:07:31.213Z,973.31
2023-04-10T03:08:03.466Z,973.11
2023-04-10T03:08:33.724Z,973.11
2023-04-10T03:09:05.042Z,973.42
2023-04-10T03:09:35.414Z,973.42
2023-04-10T03:10:07.762Z,973.31
2023-04-10T03:10:37.150Z,973.31
2023-04-10T03:11:08.947Z,973.42
2023-04-10T03:11:39.184Z,973.42
2023-04-10T03:12:11.900Z,973.21
2023-04-10T03:12:41.363Z,973.21
2023-04-10T03:13:12.962Z,973.42
2023-04-10T03:13:43.251Z,973.42
2023-04-10T03:14:15.016Z,973.21
2023-04-10T03:14:45.268Z,973.21
2023-04-10T03:15:18.314Z,973.31
2023-04-10T03:15:47.285Z,973.31
2023-04-10T03:16:19.059Z,973.52
2023-04-10T03:16:49.313Z,973.52
2023-04-10T03:17:22.124Z,973.31
2023-04-10T03:17:51.395Z,973.31
2023-04-10T03:18:23.202Z,973.52
2023-04-10T03:18:53.251Z,973.52
2023-04-10T03:19:24.877Z,973.31
2023-04-10T03:19:55.263Z,973.31
2023-04-10T03:20:37.485Z,973.31
2023-04-10T03:20:57.172Z,973.31
2023-04-10T03:21:28.983Z,973.42
2023-04-10T03:21:59.194Z,973.42
2023-04-10T03:22:31.223Z,973.21
2023-04-10T03:23:01.249Z,973.21
2023-04-10T03:23:32.977Z,973.42
2023-04-10T03:24:03.223Z,973.31
2023-04-10T03:24:34.989Z,973.31
2023-04-10T03:25:06.210Z,973.31
2023-04-10T03:25:36.954Z,973.31
2023-04-10T03:26:07.677Z,973.42
2023-04-10T03:26:38.924Z,973.42
2023-04-10T03:27:09.255Z,973.11
2023-04-10T03:27:41.945Z,973.11
2023-04-10T03:28:11.269Z,973.52
2023-04-10T03:28:43.680Z,973.52
2023-04-10T03:29:13.225Z,973.31
2023-04-10T03:29:44.909Z,973.31
2023-04-10T03:30:16.450Z,973.11
2023-04-10T03:30:46.933Z,973.11
2023-04-10T03:31:17.246Z,973.31
2023-04-10T03:31:48.895Z,973.31
2023-04-10T03:32:19.210Z,973.31
2023-04-10T03:32:51.926Z,973.31
2023-04-10T03:33:21.166Z,973.31
2023-04-10T03:33:53.321Z,973.31
2023-04-10T03:34:23.130Z,973.11
2023-04-10T03:34:55.166Z,973.11
2023-04-10T03:35:26.050Z,973.31
2023-04-10T03:35:56.888Z,973.31
2023-04-10T03:36:27.170Z,973.42
2023-04-10T03:36:58.841Z,973.42
2023-04-10T03:37:29.182Z,973.31
2023-04-10T03:38:02.257Z,973.31
2023-04-10T03:38:31.120Z,973.42
2023-04-10T03:39:03.220Z,973.11
2023-04-10T03:39:33.465Z,973.11
2023-04-10T03:40:05.834Z,973.31
2023-04-10T03:40:37.191Z,973.31
2023-04-10T03:41:06.895Z,973.31
2023-04-10T03:41:37.174Z,973.31
2023-04-10T03:42:09.479Z,973.42
2023-04-10T03:42:39.156Z,973.42
2023-04-10T03:43:11.916Z,973.31
2023-04-10T03:43:41.128Z,973.31
2023-04-10T03:44:12.853Z,973.31
2023-04-10T03:44:43.120Z,973.31
2023-04-10T03:45:15.675Z,973.31
2023-04-10T03:45:45.412Z,973.31
2023-04-10T03:46:16.838Z,973.42
2023-04-10T03:46:47.265Z,973.42
2023-04-10T03:47:18.815Z,973.31
2023-04-10T03:47:49.331Z,973.31
2023-04-10T03:48:21.849Z,973.31
2023-04-10T03:48:51.372Z,973.31
2023-04-10T03:49:23.112Z,973.11
2023-04-10T03:49:53.153Z,973.11
2023-04-10T03:50:25.356Z,973.31
2023-04-10T03:50:55.164Z,973.31
2023-04-10T03:51:26.870Z,973.31
2023-04-10T03:51:57.566Z,973.31
2023-04-10T03:52:28.961Z,973.31
2023-04-10T03:52:59.423Z,973.31
2023-04-10T03:53:34.044Z,973.72
2023-04-10T03:54:01.192Z,973.72
2023-04-10T03:54:32.955Z,973.42
2023-04-10T03:55:03.820Z,973.31
2023-04-10T03:55:35.975Z,973.31
2023-04-10T03:56:05.301Z,973.42
2023-04-10T03:56:36.858Z,973.42
2023-04-10T03:57:07.170Z,973.11
2023-04-10T03:57:38.916Z,973.11
2023-04-10T03:58:09.171Z,973.42
2023-04-10T03:58:41.849Z,973.42
2023-04-10T03:59:11.207Z,973.42
2023-04-10T03:59:43.136Z,973.42
2023-04-10T04:00:14.637Z,973.42
2023-04-10T04:00:49.578Z,973.42
2023-04-10T04:01:15.199Z,973.42
2023-04-10T04:01:46.944Z,973.42
2023-04-10T04:02:17.299Z,973.31
2023-04-10T04:02:49.013Z,973.31
2023-04-10T04:03:19.404Z,973.52
2023-04-10T04:03:52.085Z,973.52
2023-04-10T04:04:21.256Z,973.42
2023-04-10T04:04:52.919Z,973.42
2023-04-10T04:05:23.641Z,973.31
2023-04-10T04:05:54.818Z,973.31
2023-04-10T04:06:25.397Z,973.31
2023-04-10T04:06:56.871Z,973.31
2023-04-10T04:07:27.153Z,973.31
2023-04-10T04:07:58.826Z,973.31
2023-04-10T04:08:29.174Z,973.52
2023-04-10T04:09:01.854Z,973.52
2023-04-10T04:09:31.129Z,973.31
2023-04-10T04:10:03.695Z,973.21
2023-04-10T04:10:33.123Z,973.21
2023-04-10T04:11:05.164Z,973.42
2023-04-10T04:11:35.201Z,973.42
2023-04-10T04:12:06.965Z,973.31
2023-04-10T04:12:37.313Z,973.31
2023-04-10T04:13:08.972Z,973.52
2023-04-10T04:13:39.090Z,973.52
2023-04-10T04:14:11.858Z,973.31
2023-04-10T04:14:41.207Z,973.31
2023-04-10T04:15:14.190Z,973.31
2023-04-10T04:15:43.182Z,973.31
2023-04-10T04:16:14.964Z,973.52
2023-04-10T04:16:45.130Z,973.52
2023-04-10T04:17:16.827Z,973.42
2023-04-10T04:17:47.162Z,973.42
2023-04-10T04:18:18.867Z,973.52
2023-04-10T04:18:49.195Z,973.52
2023-04-10T04:19:21.825Z,973.52
2023-04-10T04:19:51.439Z,973.52
2023-04-10T04:20:24.027Z,973.62
2023-04-10T04:20:53.146Z,973.62
2023-04-10T04:21:24.849Z,973.31
2023-04-10T04:21:55.204Z,973.31
2023-04-10T04:22:27.347Z,973.31
2023-04-10T04:22:57.134Z,973.31
2023-04-10T04:23:28.155Z,973.42
2023-04-10T04:23:59.886Z,973.42
2023-04-10T04:24:31.110Z,973.31
2023-04-10T04:25:03.187Z,973.31
2023-04-10T04:25:32.316Z,973.42
2023-04-10T04:26:04.004Z,973.42
2023-04-10T04:26:34.709Z,973.42
2023-04-10T04:27:05.977Z,973.31
2023-04-10T04:27:36.384Z,973.31
2023-04-10T04:28:08.975Z,973.42
2023-04-10T04:28:38.283Z,973.42
2023-04-10T04:29:10.474Z,973.62
2023-04-10T04:29:41.295Z,973.62
2023-04-10T04:30:13.437Z,973.31
2023-04-10T04:30:42.693Z,973.31
2023-04-10T04:31:14.052Z,973.52
2023-04-10T04:31:44.384Z,973.52
2023-04-10T04:32:16.034Z,973.62
2023-04-10T04:32:46.414Z,973.62
2023-04-10T04:33:18.050Z,973.31
2023-04-10T04:33:48.267Z,973.31
2023-04-10T04:34:19.995Z,973.62
2023-04-10T04:34:51.302Z,973.62
2023-04-10T04:35:22.484Z,973.42
2023-04-10T04:35:52.429Z,973.42
2023-04-10T04:36:23.996Z,973.52
2023-04-10T04:36:54.287Z,973.52
2023-04-10T04:37:25.971Z,973.31
2023-04-10T04:37:56.282Z,973.31
2023-04-10T04:38:28.014Z,973.31
2023-04-10T04:38:58.288Z,973.31
2023-04-10T04:39:29.999Z,973.62
2023-04-10T04:40:02.229Z,973.62
2023-04-10T04:40:36.933Z,973.42
2023-04-10T04:41:02.711Z,973.62
2023-04-10T04:41:33.895Z,973.62
2023-04-10T04:42:04.333Z,973.72
2023-04-10T04:42:36.676Z,973.72
2023-04-10T04:43:06.284Z,973.31
2023-04-10T04:43:38.011Z,973.31
2023-04-10T04:44:08.309Z,973.42
2023-04-10T04:44:40.009Z,973.42
2023-04-10T04:45:12.692Z,973.42
2023-04-10T04:45:42.079Z,973.42
2023-04-10T04:46:12.334Z,973.62
2023-04-10T04:46:44.773Z,973.62
2023-04-10T04:47:14.310Z,973.62
2023-04-10T04:47:45.994Z,973.62
2023-04-10T04:48:16.332Z,973.42
2023-04-10T04:48:48.004Z,973.42
2023-04-10T04:49:18.296Z,973.42
2023-04-10T04:49:49.989Z,973.42
2023-04-10T04:50:21.897Z,973.52
2023-04-10T04:50:52.063Z,973.52
2023-04-10T04:51:22.700Z,973.52
2023-04-10T04:51:54.042Z,973.52
2023-04-10T04:52:24.321Z,973.42
2023-04-10T04:52:55.962Z,973.42
2023-04-10T04:53:26.781Z,973.52
2023-04-10T04:53:57.957Z,973.52
2023-04-10T04:54:28.294Z,973.52
2023-04-10T04:55:00.034Z,973.52
2023-04-10T04:55:31.776Z,973.52
2023-04-10T04:56:02.419Z,973.52
2023-04-10T04:56:32.435Z,973.62
2023-04-10T04:57:04.030Z,973.62
2023-04-10T04:57:34.279Z,973.62
2023-04-10T04:58:05.942Z,973.62
2023-04-10T04:58:36.387Z,973.62
2023-04-10T04:59:08.004Z,973.52
2023-04-10T04:59:38.333Z,973.52
2023-04-10T05:00:11.748Z,973.42
2023-04-10T05:00:48.918Z,973.42
2023-04-10T05:01:12.086Z,973.62
2023-04-10T05:01:42.687Z,973.62
2023-04-10T05:02:14.057Z,973.62
2023-04-10T05:02:44.392Z,973.62
2023-04-10T05:03:16.104Z,973.62
2023-04-10T05:03:46.428Z,973.62
2023-04-10T05:04:18.168Z,973.62
2023-04-10T05:04:48.259Z,973.62
2023-04-10T05:05:21.021Z,973.52
2023-04-10T05:05:51.305Z,973.52
2023-04-10T05:06:21.929Z,973.82
2023-04-10T05:06:52.783Z,973.82
2023-04-10T05:07:24.066Z,973.72
2023-04-10T05:07:54.340Z,973.72
2023-04-10T05:08:25.973Z,973.72
2023-04-10T05:08:56.511Z,973.72
2023-04-10T05:09:28.833Z,973.52
2023-04-10T05:09:58.373Z,973.52
2023-04-10T05:10:30.453Z,973.62
2023-04-10T05:11:01.611Z,973.62
2023-04-10T05:11:31.918Z,973.62
2023-04-10T05:12:02.722Z,973.72
2023-04-10T05:12:34.106Z,973.72
2023-04-10T05:13:04.369Z,973.72
2023-04-10T05:13:36.408Z,973.72
2023-04-10T05:14:06.302Z,973.62
2023-04-10T05:14:37.940Z,973.62
2023-04-10T05:15:09.597Z,973.52
2023-04-10T05:15:40.364Z,973.52
2023-04-10T05:16:11.757Z,973.72
2023-04-10T05:16:41.997Z,973.72
2023-04-10T05:17:12.297Z,973.52
2023-04-10T05:17:44.063Z,973.52
2023-04-10T05:18:14.473Z,973.52
2023-04-10T05:18:46.020Z,973.52
2023-04-10T05:19:16.300Z,973.62
2023-04-10T05:19:48.129Z,973.62
2023-04-10T05:20:19.284Z,973.72
2023-04-10T05:20:50.049Z,973.72
2023-04-10T05:21:21.275Z,973.82
2023-04-10T05:21:52.196Z,973.82
2023-04-10T05:22:22.709Z,973.52
2023-04-10T05:22:54.436Z,973.52
2023-04-10T05:23:24.273Z,973.82
2023-04-10T05:23:56.059Z,973.82
2023-04-10T05:24:26.217Z,973.82
2023-04-10T05:24:58.109Z,973.82
2023-04-10T05:25:28.795Z,973.42
2023-04-10T05:26:00.129Z,973.42
2023-04-10T05:26:31.271Z,973.82
2023-04-10T05:27:02.460Z,973.82
2023-04-10T05:27:32.298Z,973.72
2023-04-10T05:28:03.979Z,973.62
2023-04-10T05:28:34.307Z,973.62
2023-04-10T05:29:06.154Z,973.72
2023-04-10T05:29:36.258Z,973.72
2023-04-10T05:30:08.988Z,973.52
2023-04-10T05:30:38.393Z,973.52
2023-04-10T05:31:10.009Z,973.72
2023-04-10T05:31:41.254Z,973.72
2023-04-10T05:32:11.956Z,973.72
2023-04-10T05:32:42.792Z,973.72
2023-04-10T05:33:13.954Z,973.62
2023-04-10T05:33:44.663Z,973.62
2023-04-10T05:34:16.042Z,973.62
2023-04-10T05:34:46.254Z,973.62
2023-04-10T05:35:19.600Z,973.72
2023-04-10T05:35:48.469Z,973.72
2023-04-10T05:36:20.516Z,973.72
2023-04-10T05:36:51.277Z,973.72
2023-04-10T05:37:22.000Z,973.62
2023-04-10T05:37:52.293Z,973.62
2023-04-10T05:38:23.970Z,973.92
2023-04-10T05:38:54.542Z,973.92
2023-04-10T05:39:25.993Z,973.72
2023-04-10T05:39:56.283Z,973.72
2023-04-10T05:40:36.692Z,973.72
2023-04-10T05:40:58.291Z,973.72
2023-04-10T05:41:29.903Z,973.82
2023-04-10T05:42:01.568Z,973.82
2023-04-10T05:42:31.980Z,973.92
2023-04-10T05:43:02.606Z,973.82
2023-04-10T05:43:33.996Z,973.82
2023-04-10T05:44:04.286Z,973.92
2023-04-10T05:44:36.003Z,973.92
2023-04-10T05:45:07.186Z,973.82
2023-04-10T05:45:37.983Z,973.82
2023-04-10T05:46:08.384Z,973.62
2023-04-10T05:46:40.008Z,973.62
2023-04-10T05:47:11.282Z,973.92
2023-04-10T05:47:42.024Z,973.92
2023-04-10T05:48:12.241Z,973.92
2023-04-10T05:48:44.133Z,973.92
2023-04-10T05:49:14.384Z,974.03
2023-04-10T05:49:46.408Z,974.03
2023-04-10T05:50:16.766Z,973.92
2023-04-10T05:50:47.932Z,973.92
2023-04-10T05:51:18.293Z,973.82
2023-04-10T05:51:50.041Z,973.82
2023-04-10T05:52:21.371Z,973.72
2023-04-10T05:52:51.932Z,973.72
2023-04-10T05:53:22.852Z,973.92
2023-04-10T05:53:53.935Z,973.92
2023-04-10T05:54:24.420Z,973.92
2023-04-10T05:54:55.987Z,973.92
2023-04-10T05:55:26.781Z,974.03
2023-04-10T05:55:58.066Z,974.03
2023-04-10T05:56:28.225Z,973.92
2023-04-10T05:56:59.970Z,973.92
2023-04-10T05:57:31.308Z,973.92
2023-04-10T05:58:02.058Z,973.92
2023-04-10T05:58:32.301Z,973.92
2023-04-10T05:59:03.970Z,973.92
2023-04-10T05:59:34.591Z,973.92
2023-04-10T06:00:07.280Z,973.92
2023-04-10T06:00:46.427Z,973.92
2023-04-10T06:01:08.140Z,974.03
2023-04-10T06:01:38.293Z,974.03
2023-04-10T06:02:10.029Z,974.03
2023-04-10T06:02:41.477Z,974.03
2023-04-10T06:03:12.587Z,973.82
2023-04-10T06:03:42.668Z,973.82
2023-04-10T06:04:14.276Z,973.92
2023-04-10T06:04:44.327Z,973.92
2023-04-10T06:05:16.471Z,973.82
2023-04-10T06:05:46.240Z,973.82
2023-04-10T06:06:17.932Z,974.13
2023-04-10T06:06:48.256Z,974.13
2023-04-10T06:07:20.137Z,974.03
2023-04-10T06:07:51.279Z,974.03
2023-04-10T06:08:22.084Z,974.13
2023-04-10T06:08:52.368Z,974.13
2023-04-10T06:09:24.113Z,973.92
2023-04-10T06:09:54.254Z,973.92
2023-04-10T06:10:26.373Z,973.72
2023-04-10T06:10:56.335Z,973.72
2023-04-10T06:11:28.025Z,973.72
2023-04-10T06:11:58.449Z,973.72
2023-04-10T06:12:29.906Z,973.82
2023-04-10T06:13:01.691Z,973.82
2023-04-10T06:13:33.390Z,973.92
2023-04-10T06:14:03.057Z,974.13
2023-04-10T06:14:33.970Z,974.13
2023-04-10T06:15:05.951Z,973.92
2023-04-10T06:15:37.235Z,973.92
2023-04-10T06:16:06.392Z,974.03
2023-04-10T06:16:38.645Z,974.03
2023-04-10T06:17:08.212Z,973.92
2023-04-10T06:17:39.949Z,973.92
2023-04-10T06:18:11.275Z,973.92
2023-04-10T06:18:42.118Z,973.92
2023-04-10T06:19:12.740Z,973.82
2023-04-10T06:19:44.058Z,973.82
2023-04-10T06:20:14.821Z,974.03
2023-04-10T06:20:47.916Z,974.03
2023-04-10T06:21:16.255Z,974.03
2023-04-10T06:21:47.955Z,974.03
2023-04-10T06:22:18.312Z,973.92
2023-04-10T06:22:49.306Z,973.92
2023-04-10T06:23:22.033Z,974.03
2023-04-10T06:23:52.222Z,974.03
2023-04-10T06:24:22.690Z,974.03
2023-04-10T06:24:53.944Z,974.03
2023-04-10T06:25:24.701Z,974.03
2023-04-10T06:25:56.008Z,974.03
2023-04-10T06:26:26.281Z,974.13
2023-04-10T06:26:57.958Z,974.13